createdAt,value
2018-08-18T00:00:19.755Z,0.00
2018-08-18T00:01:19.744Z,0.00
2018-08-18T00:02:19.705Z,0.00
2018-08-18T00:03:19.695Z,0.00
2018-08-18T00:04:19.743Z,0.00
2018-08-18T00:05:19.683Z,0.00
2018-08-18T00:06:20.227Z,0.00
2018-08-18T00:07:19.688Z,0.00
2018-08-18T00:08:19.638Z,0.00
2018-08-18T00:09:19.628Z,0.00
2018-08-18T00:10:19.617Z,0.00
2018-08-18T00:11:19.611Z,0.00
2018-08-18T00:12:19.626Z,0.00
2018-08-18T00:13:19.602Z,0.00
2018-08-18T00:14:19.570Z,0.00
2018-08-18T00:15:19.561Z,0.00
2018-08-18T00:16:19.556Z,0.00
2018-08-18T00:17:19.586Z,0.00
2018-08-18T00:18:19.528Z,0.00
2018-08-18T00:19:19.515Z,0.00
2018-08-18T00:20:19.507Z,0.00
2018-08-18T00:21:19.490Z,0.00
2018-08-18T00:22:19.517Z,0.00
2018-08-18T00:23:19.466Z,0.00
2018-08-18T00:24:19.462Z,0.00
2018-08-18T00:25:19.442Z,0.00
2018-08-18T00:26:19.432Z,0.00
2018-08-18T00:27:19.421Z,0.00
2018-08-18T00:28:19.461Z,0.00
2018-08-18T00:29:19.401Z,0.00
2018-08-18T00:30:19.385Z,0.00
2018-08-18T00:31:19.375Z,0.00
2018-08-18T00:32:19.369Z,0.00
2018-08-18T00:33:19.357Z,0.00
2018-08-18T00:34:19.400Z,0.00
2018-08-18T00:35:19.336Z,0.00
2018-08-18T00:36:19.323Z,0.00
2018-08-18T00:37:19.360Z,0.00
2018-08-18T00:38:19.294Z,0.00
2018-08-18T00:39:19.289Z,0.00
2018-08-18T00:40:19.298Z,0.00
2018-08-18T00:41:19.264Z,0.00
2018-08-18T00:42:19.253Z,0.00
2018-08-18T00:43:19.240Z,0.00
2018-08-18T00:44:19.232Z,0.00
2018-08-18T00:45:19.241Z,0.00
2018-08-18T00:46:19.208Z,0.00
2018-08-18T00:47:19.201Z,0.00
2018-08-18T00:48:19.182Z,0.00
2018-08-18T00:49:19.175Z,0.00
2018-08-18T00:50:19.204Z,0.00
2018-08-18T00:51:19.153Z,0.00
2018-08-18T00:52:19.141Z,0.00
2018-08-18T00:53:19.151Z,0.00
2018-08-18T00:54:19.117Z,0.00
2018-08-18T00:55:19.118Z,0.00
2018-08-18T00:56:19.121Z,0.00
2018-08-18T00:57:19.087Z,0.00
2018-08-18T00:58:19.073Z,0.00
2018-08-18T00:59:19.064Z,0.00
2018-08-18T01:00:19.050Z,0.00
2018-08-18T01:01:19.071Z,0.00
2018-08-18T01:02:19.029Z,0.00
2018-08-18T01:03:19.023Z,0.00
2018-08-18T01:04:19.008Z,0.00
2018-08-18T01:05:18.999Z,0.00
2018-08-18T01:06:18.988Z,0.00
2018-08-18T01:07:19.007Z,0.00
2018-08-18T01:08:18.968Z,0.00
2018-08-18T01:09:19.014Z,0.00
2018-08-18T01:10:18.947Z,0.00
2018-08-18T01:11:19.068Z,0.00
2018-08-18T01:12:19.043Z,0.00
2018-08-18T01:13:19.034Z,0.00
2018-08-18T01:14:18.930Z,0.00
2018-08-18T01:15:18.886Z,0.00
2018-08-18T01:16:18.876Z,0.00
2018-08-18T01:17:18.928Z,0.00
2018-08-18T01:18:18.854Z,0.00
2018-08-18T01:19:18.850Z,0.00
2018-08-18T01:20:18.832Z,0.00
2018-08-18T01:21:18.824Z,0.00
2018-08-18T01:22:18.838Z,0.00
2018-08-18T01:23:18.800Z,0.00
2018-08-18T01:24:18.786Z,0.00
2018-08-18T01:25:18.777Z,0.00
2018-08-18T01:26:18.764Z,0.00
2018-08-18T01:27:18.765Z,0.00
2018-08-18T01:28:18.777Z,0.00
2018-08-18T01:29:18.735Z,0.00
2018-08-18T01:30:18.725Z,0.00
2018-08-18T01:31:18.709Z,0.00
2018-08-18T01:32:18.702Z,0.00
2018-08-18T01:33:18.797Z,0.00
2018-08-18T01:34:18.675Z,0.00
2018-08-18T01:35:18.668Z,0.00
2018-08-18T01:36:18.705Z,0.00
2018-08-18T01:37:18.649Z,0.00
2018-08-18T01:38:18.662Z,0.00
2018-08-18T01:39:18.626Z,0.00
2018-08-18T01:40:18.611Z,0.00
2018-08-18T01:41:18.602Z,0.00
2018-08-18T01:42:18.585Z,0.00
2018-08-18T01:43:18.603Z,0.00
2018-08-18T01:44:18.565Z,0.00
2018-08-18T01:45:18.559Z,0.00
2018-08-18T01:46:18.541Z,0.00
2018-08-18T01:47:18.530Z,0.00
2018-08-18T01:48:18.552Z,0.00
2018-08-18T01:49:18.591Z,0.00
2018-08-18T01:50:18.538Z,0.00
2018-08-18T01:51:18.486Z,0.00
2018-08-18T01:52:18.488Z,0.00
2018-08-18T01:53:19.249Z,0.00
2018-08-18T01:54:18.462Z,0.00
2018-08-18T01:55:18.495Z,0.00
2018-08-18T01:56:18.434Z,0.00
2018-08-18T01:57:18.417Z,0.00
2018-08-18T01:58:18.416Z,0.00
2018-08-18T01:59:18.396Z,0.00
2018-08-18T02:00:18.391Z,0.00
2018-08-18T02:01:18.433Z,0.00
2018-08-18T02:02:18.361Z,0.00
2018-08-18T02:03:18.348Z,0.00
2018-08-18T02:04:18.359Z,0.00
2018-08-18T02:05:18.339Z,0.00
2018-08-18T02:06:18.351Z,0.00
2018-08-18T02:07:18.332Z,0.00
2018-08-18T02:08:18.302Z,0.00
2018-08-18T02:09:18.289Z,0.00
2018-08-18T02:10:18.282Z,0.00
2018-08-18T02:11:18.265Z,0.00
2018-08-18T02:12:18.300Z,0.00
2018-08-18T02:13:18.242Z,0.00
2018-08-18T02:14:18.236Z,0.00
2018-08-18T02:15:18.220Z,0.00
2018-08-18T02:16:18.208Z,0.00
2018-08-18T02:17:18.199Z,0.00
2018-08-18T02:18:18.216Z,0.00
2018-08-18T02:19:18.170Z,0.00
2018-08-18T02:20:18.163Z,0.00
2018-08-18T02:21:18.152Z,0.00
2018-08-18T02:22:18.138Z,0.00
2018-08-18T02:23:18.152Z,0.00
2018-08-18T02:24:18.120Z,0.00
2018-08-18T02:25:18.104Z,0.00
2018-08-18T02:26:18.101Z,0.00
2018-08-18T02:27:18.096Z,0.00
2018-08-18T02:28:18.106Z,0.00
2018-08-18T02:29:18.102Z,0.00
2018-08-18T02:30:18.054Z,0.00
2018-08-18T02:31:18.040Z,0.00
2018-08-18T02:32:18.025Z,0.00
2018-08-18T02:33:18.042Z,0.00
2018-08-18T02:34:18.008Z,0.00
2018-08-18T02:35:17.996Z,0.00
2018-08-18T02:36:17.984Z,0.00
2018-08-18T02:37:17.974Z,0.00
2018-08-18T02:38:17.981Z,0.00
2018-08-18T02:39:17.948Z,0.00
2018-08-18T02:40:17.951Z,0.00
2018-08-18T02:41:17.926Z,0.00
2018-08-18T02:42:17.924Z,0.00
2018-08-18T02:43:17.954Z,0.00
2018-08-18T02:44:17.893Z,0.00
2018-08-18T02:45:17.893Z,0.00
2018-08-18T02:46:17.874Z,0.00
2018-08-18T02:47:17.857Z,0.00
2018-08-18T02:48:17.856Z,0.00
2018-08-18T02:49:17.897Z,0.00
2018-08-18T02:50:17.824Z,0.00
2018-08-18T02:51:17.819Z,0.00
2018-08-18T02:52:17.801Z,0.00
2018-08-18T02:53:17.847Z,0.00
2018-08-18T02:54:17.781Z,0.00
2018-08-18T02:55:17.791Z,0.00
2018-08-18T02:56:17.756Z,0.00
2018-08-18T02:57:17.748Z,0.00
2018-08-18T02:58:17.765Z,0.00
2018-08-18T02:59:17.722Z,0.00
2018-08-18T03:00:17.713Z,0.00
2018-08-18T03:01:17.698Z,0.00
2018-08-18T03:02:17.696Z,0.00
2018-08-18T03:03:17.675Z,0.00
2018-08-18T03:04:17.731Z,0.00
2018-08-18T03:05:17.653Z,0.00
2018-08-18T03:06:17.641Z,0.00
2018-08-18T03:07:17.636Z,0.00
2018-08-18T03:08:17.630Z,0.00
2018-08-18T03:09:17.660Z,0.00
2018-08-18T03:10:17.604Z,0.00
2018-08-18T03:11:17.591Z,0.00
2018-08-18T03:12:17.587Z,0.00
2018-08-18T03:13:17.564Z,0.00
2018-08-18T03:14:17.563Z,0.00
2018-08-18T03:15:17.579Z,0.00
2018-08-18T03:16:17.532Z,0.00
2018-08-18T03:17:17.525Z,0.00
2018-08-18T03:18:17.517Z,0.00
2018-08-18T03:19:17.497Z,0.00
2018-08-18T03:20:17.492Z,0.00
2018-08-18T03:21:17.499Z,0.00
2018-08-18T03:22:17.493Z,0.00
2018-08-18T03:23:17.455Z,0.00
2018-08-18T03:24:17.442Z,0.00
2018-08-18T03:25:17.428Z,0.00
2018-08-18T03:26:17.422Z,0.00
2018-08-18T03:27:17.406Z,0.00
2018-08-18T03:28:17.448Z,0.00
2018-08-18T03:29:17.385Z,0.00
2018-08-18T03:30:17.374Z,0.00
2018-08-18T03:31:17.396Z,0.00
2018-08-18T03:32:17.355Z,0.00
2018-08-18T03:33:17.337Z,0.00
2018-08-18T03:34:17.328Z,0.00
2018-08-18T03:35:17.320Z,0.00
2018-08-18T03:36:17.334Z,0.00
2018-08-18T03:37:17.296Z,0.00
2018-08-18T03:38:17.286Z,0.00
2018-08-18T03:39:17.274Z,0.00
2018-08-18T03:40:17.268Z,0.00
2018-08-18T03:41:17.251Z,0.00
2018-08-18T03:42:17.262Z,0.00
2018-08-18T03:43:17.231Z,0.00
2018-08-18T03:44:17.238Z,0.00
2018-08-18T03:45:17.207Z,0.00
2018-08-18T03:46:17.195Z,0.00
2018-08-18T03:47:17.185Z,0.00
2018-08-18T03:48:17.199Z,0.00
2018-08-18T03:49:17.159Z,0.00
2018-08-18T03:50:17.148Z,0.00
2018-08-18T03:51:17.133Z,0.00
2018-08-18T03:52:17.159Z,0.00
2018-08-18T03:53:17.114Z,0.00
2018-08-18T03:54:17.137Z,0.00
2018-08-18T03:55:17.095Z,0.00
2018-08-18T03:56:17.082Z,4.00
2018-08-18T03:57:17.068Z,4.00
2018-08-18T03:58:17.062Z,0.00
2018-08-18T03:59:17.072Z,0.00
2018-08-18T04:00:17.035Z,4.00
2018-08-18T04:01:17.050Z,4.00
2018-08-18T04:02:17.017Z,4.00
2018-08-18T04:03:17.005Z,4.00
2018-08-18T04:04:16.998Z,4.00
2018-08-18T04:05:17.013Z,8.00
2018-08-18T04:06:16.983Z,8.00
2018-08-18T04:07:16.954Z,8.00
2018-08-18T04:08:17.782Z,12.00
2018-08-18T04:09:16.955Z,12.00
2018-08-18T04:10:16.951Z,16.00
2018-08-18T04:11:16.913Z,16.00
2018-08-18T04:12:16.908Z,16.00
2018-08-18T04:13:16.892Z,20.00
2018-08-18T04:14:16.888Z,20.00
2018-08-18T04:15:16.893Z,24.00
2018-08-18T04:16:16.857Z,28.00
2018-08-18T04:17:16.850Z,32.00
2018-08-18T04:18:16.838Z,32.00
2018-08-18T04:19:16.825Z,40.00
2018-08-18T04:20:16.842Z,40.00
2018-08-18T04:21:16.800Z,44.00
2018-08-18T04:22:16.793Z,52.00
2018-08-18T04:23:16.788Z,56.00
2018-08-18T04:24:16.766Z,60.00
2018-08-18T04:25:16.809Z,64.00
2018-08-18T04:26:16.743Z,72.00
2018-08-18T04:27:16.733Z,72.00
2018-08-18T04:28:16.721Z,80.00
2018-08-18T04:29:16.716Z,88.00
2018-08-18T04:30:16.733Z,92.00
2018-08-18T04:31:16.687Z,100.00
2018-08-18T04:32:16.687Z,104.00
2018-08-18T04:33:16.664Z,112.00
2018-08-18T04:34:16.656Z,116.00
2018-08-18T04:35:16.702Z,128.00
2018-08-18T04:36:17.248Z,132.00
2018-08-18T04:37:16.623Z,140.00
2018-08-18T04:38:16.612Z,148.00
2018-08-18T04:39:16.605Z,152.00
2018-08-18T04:40:16.589Z,160.00
2018-08-18T04:41:16.581Z,168.00
2018-08-18T04:42:16.593Z,176.00
2018-08-18T04:43:16.552Z,184.00
2018-08-18T04:44:16.539Z,192.00
2018-08-18T04:45:16.532Z,204.00
2018-08-18T04:46:16.556Z,216.00
2018-08-18T04:47:16.524Z,220.00
2018-08-18T04:48:16.499Z,232.00
2018-08-18T04:49:16.487Z,240.00
2018-08-18T04:50:16.479Z,248.00
2018-08-18T04:51:16.562Z,260.00
2018-08-18T04:52:16.484Z,272.00
2018-08-18T04:53:16.444Z,284.00
2018-08-18T04:54:16.428Z,296.00
2018-08-18T04:55:16.422Z,308.00
2018-08-18T04:56:16.412Z,320.00
2018-08-18T04:57:16.435Z,336.00
2018-08-18T04:58:16.383Z,344.00
2018-08-18T04:59:16.439Z,356.00
2018-08-18T05:00:16.370Z,364.00
2018-08-18T05:01:16.385Z,372.00
2018-08-18T05:02:16.346Z,384.00
2018-08-18T05:03:16.395Z,392.00
2018-08-18T05:04:16.316Z,400.00
2018-08-18T05:05:16.377Z,408.00
2018-08-18T05:06:16.328Z,416.00
2018-08-18T05:07:16.356Z,424.00
2018-08-18T05:08:16.281Z,416.00
2018-08-18T05:09:16.270Z,424.00
2018-08-18T05:10:16.255Z,444.00
2018-08-18T05:11:16.244Z,448.00
2018-08-18T05:12:16.268Z,452.00
2018-08-18T05:13:16.219Z,460.00
2018-08-18T05:14:16.218Z,464.00
2018-08-18T05:15:16.799Z,468.00
2018-08-18T05:16:16.188Z,468.00
2018-08-18T05:17:16.207Z,472.00
2018-08-18T05:18:16.169Z,472.00
2018-08-18T05:19:16.208Z,476.00
2018-08-18T05:20:16.141Z,476.00
2018-08-18T05:21:16.134Z,480.00
2018-08-18T05:22:16.118Z,480.00
2018-08-18T05:23:16.139Z,488.00
2018-08-18T05:24:16.104Z,488.00
2018-08-18T05:25:16.083Z,484.00
2018-08-18T05:26:16.077Z,484.00
2018-08-18T05:27:16.063Z,492.00
2018-08-18T05:28:16.172Z,496.00
2018-08-18T05:29:16.037Z,504.00
2018-08-18T05:30:16.062Z,504.00
2018-08-18T05:31:16.046Z,512.00
2018-08-18T05:32:16.021Z,516.00
2018-08-18T05:33:15.995Z,524.00
2018-08-18T05:34:15.983Z,528.00
2018-08-18T05:35:15.999Z,532.00
2018-08-18T05:36:15.963Z,536.00
2018-08-18T05:37:15.952Z,540.00
2018-08-18T05:38:15.936Z,544.00
2018-08-18T05:39:15.929Z,548.00
2018-08-18T05:40:15.920Z,556.00
2018-08-18T05:41:15.939Z,544.00
2018-08-18T05:42:15.894Z,568.00
2018-08-18T05:43:15.893Z,568.00
2018-08-18T05:44:15.879Z,568.00
2018-08-18T05:45:15.869Z,572.00
2018-08-18T05:46:15.875Z,580.00
2018-08-18T05:47:15.843Z,584.00
2018-08-18T05:48:15.833Z,588.00
2018-08-18T05:49:15.815Z,596.00
2018-08-18T05:50:15.805Z,604.00
2018-08-18T05:51:15.849Z,612.00
2018-08-18T05:52:15.793Z,620.00
2018-08-18T05:53:15.768Z,624.00
2018-08-18T05:54:15.758Z,632.00
2018-08-18T05:55:15.747Z,640.00
2018-08-18T05:56:15.740Z,644.00
2018-08-18T05:57:15.749Z,652.00
2018-08-18T05:58:15.715Z,656.00
2018-08-18T05:59:15.705Z,660.00
2018-08-18T06:00:15.691Z,664.00
2018-08-18T06:01:15.679Z,672.00
2018-08-18T06:02:15.678Z,684.00
2018-08-18T06:03:15.697Z,696.00
2018-08-18T06:04:15.647Z,704.00
2018-08-18T06:05:15.633Z,680.00
2018-08-18T06:06:15.620Z,708.00
2018-08-18T06:07:15.635Z,712.00
2018-08-18T06:08:15.601Z,716.00
2018-08-18T06:09:15.593Z,716.00
2018-08-18T06:10:15.583Z,716.00
2018-08-18T06:11:15.596Z,720.00
2018-08-18T06:12:15.582Z,724.00
2018-08-18T06:13:15.575Z,724.00
2018-08-18T06:14:15.543Z,724.00
2018-08-18T06:15:15.527Z,732.00
2018-08-18T06:16:15.515Z,732.00
2018-08-18T06:17:15.504Z,740.00
2018-08-18T06:18:15.493Z,740.00
2018-08-18T06:19:15.507Z,748.00
2018-08-18T06:20:15.475Z,752.00
2018-08-18T06:21:15.473Z,756.00
2018-08-18T06:22:15.448Z,760.00
2018-08-18T06:23:15.439Z,760.00
2018-08-18T06:24:15.480Z,764.00
2018-08-18T06:25:15.414Z,768.00
2018-08-18T06:26:15.402Z,768.00
2018-08-18T06:27:15.408Z,768.00
2018-08-18T06:28:15.377Z,768.00
2018-08-18T06:29:15.403Z,772.00
2018-08-18T06:30:15.358Z,772.00
2018-08-18T06:31:15.344Z,768.00
2018-08-18T06:32:15.347Z,764.00
2018-08-18T06:33:15.322Z,788.00
2018-08-18T06:34:15.334Z,800.00
2018-08-18T06:35:15.306Z,804.00
2018-08-18T06:36:15.287Z,812.00
2018-08-18T06:37:15.294Z,816.00
2018-08-18T06:38:15.276Z,820.00
2018-08-18T06:39:15.281Z,824.00
2018-08-18T06:40:15.245Z,828.00
2018-08-18T06:41:15.354Z,832.00
2018-08-18T06:42:15.237Z,832.00
2018-08-18T06:43:15.235Z,836.00
2018-08-18T06:44:15.199Z,836.00
2018-08-18T06:45:15.218Z,840.00
2018-08-18T06:46:15.180Z,840.00
2018-08-18T06:47:15.170Z,840.00
2018-08-18T06:48:15.150Z,840.00
2018-08-18T06:49:15.145Z,852.00
2018-08-18T06:50:15.130Z,860.00
2018-08-18T06:51:15.144Z,864.00
2018-08-18T06:52:15.115Z,864.00
2018-08-18T06:53:15.098Z,868.00
2018-08-18T06:54:15.089Z,868.00
2018-08-18T06:55:15.181Z,876.00
2018-08-18T06:56:15.094Z,876.00
2018-08-18T06:57:15.076Z,880.00
2018-08-18T06:58:15.047Z,884.00
2018-08-18T06:59:15.025Z,888.00
2018-08-18T07:00:15.030Z,892.00
2018-08-18T07:01:15.007Z,888.00
2018-08-18T07:02:15.035Z,892.00
2018-08-18T07:03:14.984Z,892.00
2018-08-18T07:04:14.980Z,900.00
2018-08-18T07:05:14.963Z,908.00
2018-08-18T07:06:14.955Z,908.00
2018-08-18T07:07:14.940Z,912.00
2018-08-18T07:08:14.959Z,916.00
2018-08-18T07:09:14.912Z,924.00
2018-08-18T07:10:14.899Z,928.00
2018-08-18T07:11:14.927Z,932.00
2018-08-18T07:12:14.884Z,936.00
2018-08-18T07:13:14.866Z,936.00
2018-08-18T07:14:14.857Z,940.00
2018-08-18T07:15:14.847Z,940.00
2018-08-18T07:16:14.842Z,948.00
2018-08-18T07:17:14.865Z,952.00
2018-08-18T07:18:14.815Z,952.00
2018-08-18T07:19:14.816Z,952.00
2018-08-18T07:20:14.808Z,960.00
2018-08-18T07:21:14.788Z,964.00
2018-08-18T07:22:14.781Z,968.00
2018-08-18T07:23:14.907Z,964.00
2018-08-18T07:24:14.747Z,972.00
2018-08-18T07:25:14.739Z,976.00
2018-08-18T07:26:14.725Z,976.00
2018-08-18T07:27:14.721Z,972.00
2018-08-18T07:28:14.785Z,980.00
2018-08-18T07:29:14.690Z,984.00
2018-08-18T07:30:14.676Z,992.00
2018-08-18T07:31:14.670Z,984.00
2018-08-18T07:32:14.656Z,988.00
2018-08-18T07:33:14.681Z,1000.00
2018-08-18T07:34:14.636Z,992.00
2018-08-18T07:35:14.636Z,996.00
2018-08-18T07:36:14.612Z,992.00
2018-08-18T07:37:14.646Z,996.00
2018-08-18T07:38:14.589Z,1000.00
2018-08-18T07:39:14.761Z,1012.00
2018-08-18T07:40:14.585Z,1020.00
2018-08-18T07:41:14.554Z,1020.00
2018-08-18T07:42:14.542Z,1020.00
2018-08-18T07:43:14.540Z,1020.00
2018-08-18T07:44:14.557Z,1020.00
2018-08-18T07:45:14.510Z,1024.00
2018-08-18T07:46:14.507Z,1036.00
2018-08-18T07:47:14.494Z,1040.00
2018-08-18T07:48:14.484Z,1052.00
2018-08-18T07:49:14.494Z,1064.00
2018-08-18T07:50:14.506Z,1068.00
2018-08-18T07:51:14.450Z,1068.00
2018-08-18T07:52:14.434Z,1068.00
2018-08-18T07:53:14.524Z,1064.00
2018-08-18T07:54:14.443Z,1068.00
2018-08-18T07:55:14.400Z,1072.00
2018-08-18T07:56:14.389Z,1080.00
2018-08-18T07:57:14.378Z,1088.00
2018-08-18T07:58:14.366Z,1096.00
2018-08-18T07:59:14.385Z,1096.00
2018-08-18T08:00:14.352Z,1096.00
2018-08-18T08:01:14.336Z,1092.00
2018-08-18T08:02:14.365Z,1092.00
2018-08-18T08:03:14.307Z,1100.00
2018-08-18T08:04:14.325Z,1104.00
2018-08-18T08:05:14.289Z,1104.00
2018-08-18T08:06:14.290Z,1112.00
2018-08-18T08:07:14.267Z,1116.00
2018-08-18T08:08:14.247Z,1124.00
2018-08-18T08:09:14.262Z,1128.00
2018-08-18T08:10:14.234Z,1128.00
2018-08-18T08:11:14.224Z,1136.00
2018-08-18T08:12:14.206Z,1140.00
2018-08-18T08:13:14.198Z,1148.00
2018-08-18T08:14:14.208Z,1152.00
2018-08-18T08:15:14.174Z,1160.00
2018-08-18T08:16:14.166Z,1160.00
2018-08-18T08:17:14.164Z,1160.00
2018-08-18T08:18:14.176Z,1168.00
2018-08-18T08:19:14.163Z,1176.00
2018-08-18T08:20:14.119Z,1176.00
2018-08-18T08:21:14.115Z,1180.00
2018-08-18T08:22:14.100Z,1184.00
2018-08-18T08:23:14.091Z,1188.00
2018-08-18T08:24:14.108Z,1200.00
2018-08-18T08:25:14.064Z,1216.00
2018-08-18T08:26:14.059Z,1228.00
2018-08-18T08:27:14.041Z,1236.00
2018-08-18T08:28:14.029Z,1232.00
2018-08-18T08:29:14.023Z,1228.00
2018-08-18T08:30:14.070Z,1228.00
2018-08-18T08:31:13.997Z,1224.00
2018-08-18T08:32:14.015Z,1228.00
2018-08-18T08:33:13.975Z,1244.00
2018-08-18T08:34:13.969Z,1252.00
2018-08-18T08:35:13.957Z,1272.00
2018-08-18T08:36:13.946Z,1272.00
2018-08-18T08:37:13.924Z,1276.00
2018-08-18T08:38:13.941Z,1276.00
2018-08-18T08:39:13.911Z,1276.00
2018-08-18T08:40:13.897Z,1260.00
2018-08-18T08:41:13.911Z,1264.00
2018-08-18T08:42:13.880Z,1268.00
2018-08-18T08:43:13.934Z,1280.00
2018-08-18T08:44:13.854Z,1300.00
2018-08-18T08:45:13.850Z,1304.00
2018-08-18T08:46:13.836Z,1292.00
2018-08-18T08:47:13.848Z,1280.00
2018-08-18T08:48:13.851Z,1276.00
2018-08-18T08:49:13.929Z,1296.00
2018-08-18T08:50:13.783Z,1328.00
2018-08-18T08:51:13.800Z,1364.00
2018-08-18T08:52:13.761Z,1372.00
2018-08-18T08:53:13.752Z,1396.00
2018-08-18T08:54:13.764Z,1408.00
2018-08-18T08:55:13.727Z,1380.00
2018-08-18T08:56:13.727Z,1408.00
2018-08-18T08:57:13.708Z,1464.00
2018-08-18T08:58:13.714Z,1464.00
2018-08-18T08:59:13.685Z,1444.00
2018-08-18T09:00:13.679Z,1444.00
2018-08-18T09:01:13.661Z,1436.00
2018-08-18T09:02:13.653Z,1444.00
2018-08-18T09:03:13.662Z,1452.00
2018-08-18T09:04:13.654Z,1452.00
2018-08-18T09:05:13.624Z,1460.00
2018-08-18T09:06:13.607Z,1468.00
2018-08-18T09:07:13.598Z,1468.00
2018-08-18T09:08:13.585Z,1468.00
2018-08-18T09:09:13.612Z,1488.00
2018-08-18T09:10:13.573Z,1504.00
2018-08-18T09:11:13.551Z,1508.00
2018-08-18T09:12:13.540Z,1528.00
2018-08-18T09:13:13.529Z,1584.00
2018-08-18T09:14:13.564Z,1636.00
2018-08-18T09:15:13.507Z,1576.00
2018-08-18T09:16:13.497Z,1568.00
2018-08-18T09:17:13.496Z,1540.00
2018-08-18T09:18:13.511Z,1552.00
2018-08-18T09:19:13.487Z,1592.00
2018-08-18T09:20:13.453Z,1612.00
2018-08-18T09:21:13.438Z,1632.00
2018-08-18T09:22:13.428Z,1708.00
2018-08-18T09:23:13.423Z,1704.00
2018-08-18T09:24:13.454Z,1680.00
2018-08-18T09:25:13.395Z,1688.00
2018-08-18T09:26:13.458Z,1688.00
2018-08-18T09:27:13.366Z,1652.00
2018-08-18T09:28:13.362Z,1652.00
2018-08-18T09:29:13.351Z,1612.00
2018-08-18T09:30:13.367Z,1624.00
2018-08-18T09:31:13.330Z,1644.00
2018-08-18T09:32:13.316Z,1684.00
2018-08-18T09:33:13.314Z,1716.00
2018-08-18T09:34:13.298Z,1744.00
2018-08-18T09:35:13.303Z,1740.00
2018-08-18T09:36:13.309Z,1748.00
2018-08-18T09:37:13.270Z,1780.00
2018-08-18T09:38:13.245Z,1784.00
2018-08-18T09:39:13.240Z,1824.00
2018-08-18T09:40:13.249Z,1888.00
2018-08-18T09:41:13.217Z,1920.00
2018-08-18T09:42:13.254Z,2048.00
2018-08-18T09:43:13.195Z,2448.00
2018-08-18T09:44:13.178Z,2884.00
2018-08-18T09:45:13.199Z,2788.00
2018-08-18T09:46:13.221Z,2592.00
2018-08-18T09:47:13.159Z,2276.00
2018-08-18T09:48:13.140Z,2140.00
2018-08-18T09:49:13.130Z,1960.00
2018-08-18T09:50:13.141Z,1852.00
2018-08-18T09:51:13.104Z,1824.00
2018-08-18T09:52:13.098Z,1812.00
2018-08-18T09:53:13.121Z,1864.00
2018-08-18T09:54:13.073Z,1908.00
2018-08-18T09:55:13.063Z,1976.00
2018-08-18T09:56:13.082Z,2080.00
2018-08-18T09:57:13.033Z,2152.00
2018-08-18T09:58:13.039Z,2068.00
2018-08-18T09:59:13.070Z,2092.00
2018-08-18T10:00:13.013Z,2056.00
2018-08-18T10:01:13.405Z,2216.00
2018-08-18T10:02:12.987Z,2312.00
2018-08-18T10:03:12.975Z,2288.00
2018-08-18T10:04:12.962Z,2160.00
2018-08-18T10:05:12.952Z,2040.00
2018-08-18T10:06:12.988Z,2176.00
2018-08-18T10:07:12.931Z,2196.00
2018-08-18T10:08:12.929Z,2464.00
2018-08-18T10:09:12.901Z,2484.00
2018-08-18T10:10:12.892Z,2460.00
2018-08-18T10:11:12.927Z,2736.00
2018-08-18T10:12:12.882Z,2748.00
2018-08-18T10:13:12.868Z,2396.00
2018-08-18T10:14:12.849Z,2188.00
2018-08-18T10:15:12.892Z,2112.00
2018-08-18T10:16:12.869Z,2108.00
2018-08-18T10:17:12.835Z,1980.00
2018-08-18T10:18:12.815Z,1932.00
2018-08-18T10:19:12.791Z,2284.00
2018-08-18T10:20:12.788Z,2320.00
2018-08-18T10:21:12.796Z,2672.00
2018-08-18T10:22:12.818Z,2728.00
2018-08-18T10:23:12.778Z,2444.00
2018-08-18T10:24:12.747Z,2592.00
2018-08-18T10:25:12.726Z,2652.00
2018-08-18T10:26:12.712Z,2508.00
2018-08-18T10:27:12.721Z,2436.00
2018-08-18T10:28:12.689Z,2868.00
2018-08-18T10:29:12.740Z,2608.00
2018-08-18T10:30:12.671Z,2392.00
2018-08-18T10:31:12.658Z,2408.00
2018-08-18T10:32:12.649Z,2428.00
2018-08-18T10:33:12.648Z,2452.00
2018-08-18T10:34:12.673Z,2504.00
2018-08-18T10:35:12.623Z,2544.00
2018-08-18T10:36:12.608Z,2636.00
2018-08-18T10:37:12.593Z,2460.00
2018-08-18T10:38:12.591Z,2424.00
2018-08-18T10:39:12.605Z,2416.00
2018-08-18T10:40:12.559Z,2444.00
2018-08-18T10:41:12.550Z,2652.00
2018-08-18T10:42:12.647Z,2956.00
2018-08-18T10:43:12.538Z,2940.00
2018-08-18T10:44:12.544Z,2648.00
2018-08-18T10:45:12.509Z,2088.00
2018-08-18T10:46:12.496Z,2484.00
2018-08-18T10:47:12.529Z,2544.00
2018-08-18T10:48:12.465Z,2748.00
2018-08-18T10:49:12.502Z,2988.00
2018-08-18T10:50:12.461Z,2984.00
2018-08-18T10:51:12.440Z,2752.00
2018-08-18T10:52:12.426Z,2640.00
2018-08-18T10:53:12.412Z,2052.00
2018-08-18T10:54:12.397Z,2144.00
2018-08-18T10:55:12.454Z,3012.00
2018-08-18T10:56:12.381Z,3904.00
2018-08-18T10:57:12.369Z,4940.00
2018-08-18T10:58:12.366Z,4556.00
2018-08-18T10:59:12.349Z,4000.00
2018-08-18T11:00:12.334Z,3432.00
2018-08-18T11:01:12.374Z,3376.00
2018-08-18T11:02:12.376Z,3208.00
2018-08-18T11:03:12.301Z,3344.00
2018-08-18T11:04:12.292Z,3204.00
2018-08-18T11:05:12.283Z,3452.00
2018-08-18T11:06:12.274Z,3556.00
2018-08-18T11:07:12.281Z,4516.00
2018-08-18T11:08:12.284Z,5472.00
2018-08-18T11:09:12.240Z,6136.00
2018-08-18T11:10:12.221Z,6320.00
2018-08-18T11:11:12.224Z,5572.00
2018-08-18T11:12:12.237Z,4980.00
2018-08-18T11:13:12.198Z,5576.00
2018-08-18T11:14:12.192Z,6220.00
2018-08-18T11:15:12.173Z,6080.00
2018-08-18T11:16:12.162Z,5772.00
2018-08-18T11:17:12.200Z,5260.00
2018-08-18T11:18:12.253Z,4564.00
2018-08-18T11:19:12.124Z,4240.00
2018-08-18T11:20:12.110Z,4036.00
2018-08-18T11:21:12.101Z,4232.00
2018-08-18T11:22:12.100Z,3696.00
2018-08-18T11:23:12.417Z,3120.00
2018-08-18T11:24:12.138Z,2844.00
2018-08-18T11:25:12.059Z,3024.00
2018-08-18T11:26:12.046Z,3212.00
2018-08-18T11:27:12.041Z,3348.00
2018-08-18T11:28:12.082Z,3340.00
2018-08-18T11:29:12.019Z,3240.00
2018-08-18T11:30:12.007Z,3268.00
2018-08-18T11:31:11.990Z,3336.00
2018-08-18T11:32:11.988Z,3260.00
2018-08-18T11:33:11.973Z,3232.00
2018-08-18T11:34:11.998Z,3148.00
2018-08-18T11:35:12.007Z,3072.00
2018-08-18T11:36:11.937Z,2984.00
2018-08-18T11:37:12.894Z,2916.00
2018-08-18T11:38:11.924Z,2868.00
2018-08-18T11:39:11.984Z,2868.00
2018-08-18T11:40:11.895Z,2944.00
2018-08-18T11:41:11.879Z,3096.00
2018-08-18T11:42:11.889Z,3336.00
2018-08-18T11:43:11.857Z,3328.00
2018-08-18T11:44:11.855Z,2844.00
2018-08-18T11:45:11.934Z,3464.00
2018-08-18T11:46:11.824Z,3988.00
2018-08-18T11:47:11.812Z,3788.00
2018-08-18T11:48:11.814Z,3508.00
2018-08-18T11:49:11.794Z,3400.00
2018-08-18T11:50:11.783Z,3444.00
2018-08-18T11:51:11.805Z,3476.00
2018-08-18T11:52:11.779Z,3616.00
2018-08-18T11:53:11.749Z,3340.00
2018-08-18T11:54:11.786Z,3344.00
2018-08-18T11:55:11.730Z,3472.00
2018-08-18T11:56:11.754Z,3536.00
2018-08-18T11:57:11.706Z,3472.00
2018-08-18T11:58:11.713Z,3292.00
2018-08-18T11:59:11.688Z,3112.00
2018-08-18T12:00:11.671Z,3036.00
2018-08-18T12:01:11.830Z,3036.00
2018-08-18T12:02:11.647Z,3056.00
2018-08-18T12:03:11.637Z,3088.00
2018-08-18T12:04:11.620Z,3068.00
2018-08-18T12:05:11.616Z,3012.00
2018-08-18T12:06:11.611Z,2984.00
2018-08-18T12:07:11.615Z,3024.00
2018-08-18T12:08:11.582Z,3200.00
2018-08-18T12:09:11.567Z,3232.00
2018-08-18T12:10:11.571Z,3088.00
2018-08-18T12:11:11.552Z,2948.00
2018-08-18T12:12:11.544Z,2932.00
2018-08-18T12:13:11.527Z,2928.00
2018-08-18T12:14:11.519Z,2944.00
2018-08-18T12:15:11.529Z,2960.00
2018-08-18T12:16:11.486Z,2964.00
2018-08-18T12:17:12.418Z,2952.00
2018-08-18T12:18:11.472Z,2976.00
2018-08-18T12:19:11.463Z,2964.00
2018-08-18T12:20:11.469Z,2944.00
2018-08-18T12:21:11.442Z,2892.00
2018-08-18T12:22:11.431Z,2944.00
2018-08-18T12:23:11.421Z,3064.00
2018-08-18T12:24:11.404Z,3120.00
2018-08-18T12:25:11.411Z,3136.00
2018-08-18T12:26:11.381Z,3072.00
2018-08-18T12:27:11.369Z,3068.00
2018-08-18T12:28:11.358Z,3132.00
2018-08-18T12:29:11.354Z,3160.00
2018-08-18T12:30:11.446Z,3192.00
2018-08-18T12:31:11.328Z,3220.00
2018-08-18T12:32:11.306Z,3292.00
2018-08-18T12:33:11.360Z,3416.00
2018-08-18T12:34:11.284Z,3532.00
2018-08-18T12:35:11.296Z,3648.00